Time;durP1;ratioP1;P1;durP2;ratioP2;P2;SDS_P1;SDS_P2;PMS_P1;PMS_P2;Temp;Humidity;BMP_temperature;BMP_pressure;BME280_temperature;BME280_humidity;BME280_pressure;Samples;Min_cycle;Max_cycle;Signal;HPM_P1;HPM_P2
2023/12/30 00:02:17;;;;;;;3.90;2.45;;;7.30;99.90;;;;;;4965758;28;20035;-72
2023/12/30 00:04:43;;;;;;;2.28;1.52;;;7.30;99.90;;;;;;4966181;28;20066;-71
2023/12/30 00:07:09;;;;;;;3.13;1.80;;;7.50;99.90;;;;;;4957676;28;20043;-71
2023/12/30 00:09:34;;;;;;;2.22;1.83;;;7.60;99.90;;;;;;4972475;28;20333;-69
2023/12/30 00:12:00;;;;;;;2.95;1.85;;;7.60;99.90;;;;;;4971279;28;20027;-72
2023/12/30 00:14:25;;;;;;;6.30;1.52;;;7.70;99.90;;;;;;4973287;28;20027;-72
2023/12/30 00:16:51;;;;;;;2.42;1.58;;;7.90;99.90;;;;;;4963890;28;20066;-72
2023/12/30 00:19:17;;;;;;;4.47;1.77;;;8.00;99.90;;;;;;4971017;28;20034;-72
2023/12/30 00:21:42;;;;;;;2.38;1.52;;;8.20;99.90;;;;;;4961731;28;20035;-72
2023/12/30 00:24:08;;;;;;;3.05;1.45;;;8.50;99.90;;;;;;4968339;28;20086;-72
2023/12/30 00:26:33;;;;;;;2.92;1.50;;;8.60;99.90;;;;;;4959222;28;20114;-70
2023/12/30 00:28:59;;;;;;;1.75;1.48;;;8.80;99.90;;;;;;4965374;28;20093;-71
2023/12/30 00:31:29;;;;;;;2.08;1.52;;;9.00;99.90;;;;;;4971514;28;20110;-72
2023/12/30 00:33:56;;;;;;;;;;;9.10;99.90;;;;;;4960647;28;20104;-72
2023/12/30 00:36:21;;;;;;;2.80;1.42;;;9.20;99.90;;;;;;4969096;28;19915;-72
2023/12/30 00:38:47;;;;;;;3.50;1.50;;;9.30;99.90;;;;;;4962744;28;20050;-72
2023/12/30 00:41:13;;;;;;;1.88;1.20;;;9.30;99.90;;;;;;4973944;28;20114;-72
2023/12/30 00:43:40;;;;;;;3.22;1.40;;;9.40;99.90;;;;;;4962762;28;20034;-71
2023/12/30 00:46:06;;;;;;;4.18;1.58;;;9.40;99.90;;;;;;4963764;28;20065;-72
2023/12/30 00:48:32;;;;;;;8.43;3.35;;;9.50;99.90;;;;;;4971688;28;20030;-72
2023/12/30 00:51:00;;;;;;;3.90;1.60;;;9.50;99.90;;;;;;4973522;28;20030;-71
2023/12/30 00:53:26;;;;;;;1.95;1.40;;;9.60;99.90;;;;;;4965556;28;20085;-70
2023/12/30 00:55:53;;;;;;;3.55;1.38;;;9.60;99.90;;;;;;4970026;28;20118;-70
2023/12/30 00:58:20;;;;;;;2.35;1.50;;;9.60;99.90;;;;;;4968377;28;20114;-71
2023/12/30 01:00:45;;;;;;;1.83;1.40;;;9.60;99.90;;;;;;4957774;28;20027;-71
2023/12/30 01:03:11;;;;;;;1.83;1.60;;;9.60;99.90;;;;;;4968348;28;20034;-71
2023/12/30 01:05:37;;;;;;;1.63;1.50;;;9.60;99.90;;;;;;4965364;28;20038;-69
2023/12/30 01:08:03;;;;;;;3.85;1.40;;;9.70;99.90;;;;;;4958208;28;20409;-70
2023/12/30 01:10:28;;;;;;;4.07;1.80;;;9.60;99.90;;;;;;4961987;28;20031;-72
2023/12/30 01:12:54;;;;;;;3.13;1.48;;;9.60;99.90;;;;;;4959139;28;20023;-71
2023/12/30 01:15:19;;;;;;;1.92;1.40;;;9.50;99.90;;;;;;4972028;28;20540;-71
2023/12/30 01:17:45;;;;;;;3.25;1.55;;;9.30;99.90;;;;;;4970555;28;20039;-70
2023/12/30 01:20:11;;;;;;;1.98;1.48;;;9.20;99.90;;;;;;4965543;28;20065;-71
2023/12/30 01:22:37;;;;;;;3.55;1.75;;;9.10;99.90;;;;;;4969435;28;20030;-69
2023/12/30 01:25:03;;;;;;;4.32;1.60;;;9.00;99.90;;;;;;4962591;28;20133;-71
2023/12/30 01:27:28;;;;;;;2.13;1.40;;;9.00;99.90;;;;;;4962773;28;20022;-71
2023/12/30 01:29:54;;;;;;;4.63;1.33;;;8.90;99.90;;;;;;4968283;28;20488;-73
2023/12/30 01:32:19;;;;;;;2.38;1.77;;;8.90;99.90;;;;;;4966595;28;20035;-71
2023/12/30 01:34:45;;;;;;;1.88;1.30;;;8.80;99.90;;;;;;4955775;28;20556;-71
2023/12/30 01:37:10;;;;;;;1.88;1.58;;;8.70;99.90;;;;;;4963701;28;20042;-71
2023/12/30 01:39:36;;;;;;;3.67;1.70;;;8.50;99.90;;;;;;4961882;28;20479;-70
2023/12/30 01:42:02;;;;;;;3.22;1.60;;;8.40;99.90;;;;;;4968009;28;20049;-71
2023/12/30 01:44:27;;;;;;;1.73;1.60;;;8.20;99.90;;;;;;4958517;28;20023;-71
2023/12/30 01:46:54;;;;;;;5.05;2.13;;;8.10;99.90;;;;;;4963817;28;20031;-71
2023/12/30 01:49:20;;;;;;;2.80;1.80;;;8.00;99.90;;;;;;4972398;28;20041;-71
2023/12/30 01:51:47;;;;;;;6.50;1.73;;;7.80;99.90;;;;;;4959031;28;20031;-71
2023/12/30 01:54:16;;;;;;;2.50;1.90;;;7.70;99.90;;;;;;4963993;28;20031;-72
2023/12/30 01:56:41;;;;;;;6.32;2.40;;;7.70;99.90;;;;;;4961408;28;20041;-71
2023/12/30 01:59:08;;;;;;;3.08;1.88;;;7.60;99.90;;;;;;4965212;28;20377;-71
2023/12/30 02:01:34;;;;;;;6.57;2.17;;;7.50;99.90;;;;;;4963120;28;20022;-70
2023/12/30 02:03:59;;;;;;;3.67;1.90;;;7.50;99.90;;;;;;4964107;28;20460;-71
2023/12/30 02:06:25;;;;;;;3.13;2.33;;;7.40;99.90;;;;;;4962340;28;20129;-71
2023/12/30 02:08:51;;;;;;;5.32;2.20;;;7.40;99.90;;;;;;4962077;28;20511;-71
2023/12/30 02:11:17;;;;;;;3.47;2.25;;;7.30;99.90;;;;;;4965424;28;20117;-72
2023/12/30 02:13:43;;;;;;;3.08;2.50;;;7.30;99.90;;;;;;4963736;28;20047;-72
2023/12/30 02:16:09;;;;;;;2.00;1.88;;;7.30;99.90;;;;;;4962447;28;20054;-71
2023/12/30 02:18:34;;;;;;;4.05;1.95;;;7.30;99.90;;;;;;4964912;28;20372;-69
2023/12/30 02:21:00;;;;;;;3.15;2.08;;;7.40;99.90;;;;;;4962773;28;20487;-71
2023/12/30 02:23:25;;;;;;;3.55;2.08;;;7.30;99.90;;;;;;4948354;28;20090;-72
2023/12/30 02:25:51;;;;;;;2.92;2.17;;;7.40;99.90;;;;;;4943682;28;20086;-71
2023/12/30 02:28:17;;;;;;;2.35;2.00;;;7.40;99.90;;;;;;4966059;28;20023;-71
2023/12/30 02:30:42;;;;;;;4.45;2.20;;;7.30;99.90;;;;;;4966593;28;20049;-71
2023/12/30 02:33:08;;;;;;;2.50;2.20;;;7.30;99.90;;;;;;4968937;28;20077;-71
2023/12/30 02:35:34;;;;;;;5.88;2.10;;;7.40;99.90;;;;;;4967002;28;20035;-69
2023/12/30 02:37:59;;;;;;;4.30;2.47;;;7.40;99.90;;;;;;4966805;28;20023;-70
2023/12/30 02:40:25;;;;;;;3.20;1.77;;;7.40;99.90;;;;;;4972974;28;20465;-71
2023/12/30 02:42:50;;;;;;;4.85;1.83;;;7.40;99.90;;;;;;4966302;28;20027;-72
2023/12/30 02:45:16;;;;;;;3.28;2.10;;;7.40;99.90;;;;;;4966700;28;20206;-71
2023/12/30 02:47:42;;;;;;;3.28;2.30;;;7.40;99.90;;;;;;4970386;28;20039;-71
2023/12/30 02:50:08;;;;;;;3.58;2.00;;;7.40;99.90;;;;;;4972547;28;20106;-71
2023/12/30 02:52:33;;;;;;;3.13;2.20;;;7.30;99.90;;;;;;4960596;28;20035;-69
2023/12/30 02:55:00;;;;;;;3.55;2.65;;;7.30;99.90;;;;;;4961955;28;20031;-71
2023/12/30 02:57:26;;;;;;;2.78;2.35;;;7.30;99.90;;;;;;4972572;28;20038;-72
2023/12/30 02:59:52;;;;;;;4.05;2.22;;;7.20;99.90;;;;;;4959397;28;20056;-72
2023/12/30 03:02:17;;;;;;;2.55;2.13;;;7.20;99.90;;;;;;4961790;28;20084;-71
2023/12/30 03:04:43;;;;;;;3.33;2.10;;;7.20;99.90;;;;;;4968162;28;20034;-71
2023/12/30 03:07:09;;;;;;;3.03;2.30;;;7.10;99.90;;;;;;4975112;28;20379;-71
2023/12/30 03:09:34;;;;;;;5.47;2.05;;;7.20;99.90;;;;;;4964777;28;20042;-69
2023/12/30 03:12:02;;;;;;;4.32;1.60;;;7.20;99.90;;;;;;4961242;28;20027;-71
2023/12/30 03:14:27;;;;;;;3.33;1.80;;;7.30;99.90;;;;;;4971612;28;20031;-71
2023/12/30 03:16:54;;;;;;;2.35;1.95;;;7.30;99.90;;;;;;4964653;28;20063;-70
2023/12/30 03:19:19;;;;;;;4.63;2.08;;;7.20;99.90;;;;;;4973273;28;20057;-71
2023/12/30 03:21:45;;;;;;;3.85;2.00;;;7.30;99.90;;;;;;4972042;28;20059;-71
2023/12/30 03:24:11;;;;;;;5.32;2.17;;;7.30;99.90;;;;;;4971594;28;20046;-71
2023/12/30 03:26:37;;;;;;;3.05;1.83;;;7.30;99.90;;;;;;4959567;28;20387;-69
2023/12/30 03:29:02;;;;;;;4.13;1.70;;;7.30;99.90;;;;;;4962005;28;20105;-71
2023/12/30 03:31:28;;;;;;;3.60;1.85;;;7.30;99.90;;;;;;4974479;28;20105;-71
2023/12/30 03:33:54;;;;;;;3.97;1.98;;;7.30;99.90;;;;;;4959718;28;20031;-71
2023/12/30 03:36:20;;;;;;;2.85;1.80;;;7.40;99.90;;;;;;4961601;28;20059;-71
2023/12/30 03:38:50;;;;;;;3.33;1.80;;;7.50;99.90;;;;;;4967675;28;20027;-71
2023/12/30 03:41:16;;;;;;;1.60;1.50;;;7.40;99.90;;;;;;4973728;28;20053;-72
2023/12/30 03:43:42;;;;;;;5.30;2.10;;;7.40;99.90;;;;;;4963373;28;20165;-71
2023/12/30 03:46:08;;;;;;;3.10;1.80;;;7.40;99.90;;;;;;4968749;28;20036;-72
2023/12/30 03:48:33;;;;;;;3.30;1.50;;;7.40;99.90;;;;;;4973186;28;20027;-70
2023/12/30 03:50:59;;;;;;;2.88;1.50;;;7.40;99.90;;;;;;4964350;28;20027;-71
2023/12/30 03:53:25;;;;;;;4.95;2.15;;;7.30;99.90;;;;;;4965329;28;20061;-73
2023/12/30 03:55:50;;;;;;;3.47;1.67;;;7.30;99.90;;;;;;4967952;28;20031;-71
2023/12/30 03:58:16;;;;;;;5.55;2.00;;;7.30;99.90;;;;;;4969087;28;20476;-71
2023/12/30 04:00:42;;;;;;;4.32;1.83;;;7.30;99.90;;;;;;4958365;28;20031;-71
2023/12/30 04:03:07;;;;;;;2.45;1.70;;;7.20;99.90;;;;;;4961537;28;20109;-71
2023/12/30 04:05:33;;;;;;;2.83;1.80;;;7.30;99.90;;;;;;4971463;28;20046;-71
2023/12/30 04:07:58;;;;;;;4.75;1.63;;;7.30;99.90;;;;;;4971413;28;20198;-71
2023/12/30 04:10:24;;;;;;;4.32;1.70;;;7.30;99.90;;;;;;4966200;28;20380;-71
2023/12/30 04:12:50;;;;;;;4.03;1.90;;;7.30;99.90;;;;;;4969163;28;20066;-72
2023/12/30 04:15:15;;;;;;;2.50;1.45;;;7.30;99.90;;;;;;4973562;28;20034;-71
2023/12/30 04:17:41;;;;;;;3.38;1.80;;;7.40;99.90;;;;;;4972541;28;20058;-71
2023/12/30 04:20:07;;;;;;;2.47;1.35;;;7.40;99.90;;;;;;4971740;28;20063;-71
2023/12/30 04:22:33;;;;;;;0.93;0.90;;;7.40;99.90;;;;;;4971673;28;20037;-71
2023/12/30 04:24:59;;;;;;;2.65;1.50;;;7.40;99.90;;;;;;4963714;28;20038;-71
2023/12/30 04:27:25;;;;;;;2.28;1.10;;;7.40;99.90;;;;;;4964170;28;20034;-71
2023/12/30 04:29:51;;;;;;;7.88;2.53;;;7.30;99.90;;;;;;4967597;28;20027;-71
2023/12/30 04:32:16;;;;;;;2.38;1.83;;;7.30;99.90;;;;;;4968040;28;20033;-71
2023/12/30 04:34:42;;;;;;;2.15;1.77;;;7.30;99.90;;;;;;4965571;28;20457;-71
2023/12/30 04:37:07;;;;;;;4.25;1.52;;;7.30;99.90;;;;;;4953407;28;20034;-71
2023/12/30 04:39:33;;;;;;;3.90;1.45;;;7.20;99.90;;;;;;4970660;28;20057;-71
2023/12/30 04:41:59;;;;;;;3.67;2.05;;;7.20;99.90;;;;;;4971887;28;20110;-71
2023/12/30 04:44:25;;;;;;;3.15;1.42;;;7.20;99.90;;;;;;4973852;28;20110;-71
2023/12/30 04:46:50;;;;;;;2.10;1.58;;;7.20;99.90;;;;;;4968322;28;20106;-71
2023/12/30 04:49:16;;;;;;;2.15;1.70;;;7.20;99.90;;;;;;4973482;28;20089;-71
2023/12/30 04:51:42;;;;;;;5.13;1.50;;;7.20;99.90;;;;;;4961028;28;20097;-71
2023/12/30 04:54:07;;;;;;;3.67;1.85;;;7.10;99.90;;;;;;4967189;28;20384;-72
2023/12/30 04:56:33;;;;;;;3.53;2.10;;;7.10;99.90;;;;;;4969002;28;20471;-71
2023/12/30 04:58:59;;;;;;;4.97;1.80;;;7.10;99.90;;;;;;4962645;28;20118;-71
2023/12/30 05:01:25;;;;;;;6.13;1.70;;;7.10;99.90;;;;;;4970704;28;20444;-72
2023/12/30 05:03:51;;;;;;;4.70;1.48;;;7.10;99.90;;;;;;4965968;28;20061;-71
2023/12/30 05:06:23;;;;;;;3.50;1.48;;;7.20;99.90;;;;;;4973394;28;20030;-71
2023/12/30 05:08:53;;;;;;;2.95;1.02;;;7.30;99.90;;;;;;4963660;28;20147;-71
2023/12/30 05:11:18;;;;;;;2.58;1.10;;;7.30;99.90;;;;;;4959493;28;20062;-71
2023/12/30 05:13:44;;;;;;;7.88;1.73;;;7.30;99.90;;;;;;4968202;28;20061;-71
2023/12/30 05:16:10;;;;;;;2.42;1.30;;;7.50;99.90;;;;;;4969503;28;20054;-70
2023/12/30 05:18:36;;;;;;;1.67;1.00;;;7.50;99.90;;;;;;4964932;28;20119;-69
2023/12/30 05:21:02;;;;;;;2.58;1.08;;;7.50;99.90;;;;;;4966112;28;20042;-70
2023/12/30 05:23:28;;;;;;;1.88;1.17;;;7.50;99.90;;;;;;4964928;28;20050;-71
2023/12/30 05:25:53;;;;;;;2.58;0.85;;;7.50;99.90;;;;;;4959442;28;20125;-72
2023/12/30 05:28:19;;;;;;;3.85;0.80;;;7.50;99.90;;;;;;4966408;28;20031;-72
2023/12/30 05:30:44;;;;;;;2.90;0.80;;;7.60;99.90;;;;;;4968384;28;20398;-72
2023/12/30 05:33:10;;;;;;;2.60;0.82;;;7.60;99.90;;;;;;4960851;28;20028;-72
2023/12/30 05:35:36;;;;;;;1.58;0.85;;;7.70;99.90;;;;;;4962533;28;20054;-70
2023/12/30 05:38:03;;;;;;;2.28;1.00;;;7.80;99.90;;;;;;4963799;28;20029;-72
2023/12/30 05:40:29;;;;;;;3.65;1.08;;;7.80;99.90;;;;;;4971263;28;20488;-72
2023/12/30 05:42:55;;;;;;;2.10;1.00;;;7.80;99.90;;;;;;4955146;28;20027;-72
2023/12/30 05:45:21;;;;;;;2.28;0.90;;;7.80;99.90;;;;;;4959393;28;20027;-73
2023/12/30 05:47:46;;;;;;;3.72;0.93;;;7.80;99.90;;;;;;4966837;28;20098;-72
2023/12/30 05:50:12;;;;;;;4.00;1.17;;;7.80;99.90;;;;;;4967947;28;20544;-72
2023/12/30 05:52:38;;;;;;;2.58;1.00;;;7.80;99.90;;;;;;4956822;28;20027;-71
2023/12/30 05:55:04;;;;;;;3.55;0.80;;;7.80;99.90;;;;;;4965337;28;20061;-72
2023/12/30 05:57:30;;;;;;;3.78;0.70;;;7.80;99.90;;;;;;4969089;28;20392;-72
2023/12/30 05:59:55;;;;;;;2.03;0.93;;;7.80;99.90;;;;;;4968232;28;20022;-70
2023/12/30 06:02:21;;;;;;;0.90;0.80;;;7.80;99.90;;;;;;4965947;28;20039;-72
2023/12/30 06:04:47;;;;;;;2.05;0.80;;;7.80;99.90;;;;;;4966803;28;20089;-72
2023/12/30 06:07:13;;;;;;;2.95;0.93;;;7.80;99.90;;;;;;4971913;28;20443;-72
2023/12/30 06:09:38;;;;;;;4.43;1.02;;;7.90;99.90;;;;;;4961521;28;20054;-71
2023/12/30 06:12:04;;;;;;;2.85;0.60;;;8.00;99.90;;;;;;4962253;28;20490;-71
2023/12/30 06:14:30;;;;;;;1.98;0.90;;;7.90;99.90;;;;;;4970545;28;20027;-74
2023/12/30 06:16:55;;;;;;;1.55;0.70;;;7.90;99.90;;;;;;4961139;28;20887;-72
2023/12/30 06:19:21;;;;;;;0.75;0.75;;;7.90;99.90;;;;;;4969499;28;20026;-73
2023/12/30 06:21:47;;;;;;;4.25;0.70;;;7.80;99.90;;;;;;4965921;28;20030;-73
2023/12/30 06:24:12;;;;;;;4.22;0.80;;;7.80;99.90;;;;;;4966789;28;20042;-74
2023/12/30 06:26:41;;;;;;;3.13;0.85;;;7.80;99.90;;;;;;4956522;28;20027;-71
2023/12/30 06:29:08;;;;;;;2.63;0.88;;;7.80;99.90;;;;;;4965634;28;20031;-74
2023/12/30 06:31:33;;;;;;;1.67;0.70;;;7.80;99.90;;;;;;4969538;28;20022;-73
2023/12/30 06:33:59;;;;;;;5.55;0.70;;;7.70;99.90;;;;;;4968737;28;20173;-73
2023/12/30 06:36:25;;;;;;;1.83;0.60;;;7.60;99.90;;;;;;4966190;28;20039;-73
2023/12/30 06:38:51;;;;;;;1.23;0.77;;;7.60;99.90;;;;;;4965371;28;20531;-73
2023/12/30 06:41:19;;;;;;;3.03;0.88;;;7.60;99.90;;;;;;4970643;28;20035;-71
2023/12/30 06:43:46;;;;;;;2.15;0.98;;;7.60;99.90;;;;;;4962436;28;20023;-69
2023/12/30 06:46:11;;;;;;;2.08;0.80;;;7.60;99.90;;;;;;4961047;28;20437;-73
2023/12/30 06:48:37;;;;;;;0.85;0.68;;;7.60;99.90;;;;;;4970011;28;20035;-70
2023/12/30 06:51:02;;;;;;;1.48;0.73;;;7.60;99.90;;;;;;4961619;28;20127;-77
2023/12/30 06:53:31;;;;;;;4.15;1.10;;;7.60;99.90;;;;;;4962660;28;20094;-72
2023/12/30 06:56:04;;;;;;;0.80;0.75;;;7.60;99.90;;;;;;4962339;28;20081;-73
2023/12/30 06:58:29;;;;;;;5.07;0.80;;;7.60;99.90;;;;;;4962589;28;20042;-73
2023/12/30 07:00:55;;;;;;;2.85;0.90;;;7.60;99.90;;;;;;4962077;28;20629;-72
2023/12/30 07:03:21;;;;;;;1.67;1.00;;;7.60;99.90;;;;;;4965501;28;20049;-75
2023/12/30 07:05:47;;;;;;;5.47;1.20;;;7.50;99.90;;;;;;4967702;28;20035;-72
2023/12/30 07:08:12;;;;;;;4.18;1.05;;;7.50;99.90;;;;;;4955910;28;20020;-72
2023/12/30 07:10:38;;;;;;;3.67;1.10;;;7.60;99.90;;;;;;4964889;28;20035;-73
2023/12/30 07:13:05;;;;;;;2.28;1.10;;;7.60;99.90;;;;;;4967620;28;20051;-72
2023/12/30 07:15:31;;;;;;;1.95;1.20;;;7.50;99.90;;;;;;4971405;28;20037;-71
2023/12/30 07:17:56;;;;;;;2.13;1.10;;;7.50;99.90;;;;;;4963784;28;20034;-73
2023/12/30 07:20:22;;;;;;;3.35;0.90;;;7.40;99.90;;;;;;4969956;28;20047;-71
2023/12/30 07:22:48;;;;;;;2.75;1.33;;;7.40;99.90;;;;;;4972805;28;20073;-71
2023/12/30 07:25:14;;;;;;;2.88;1.25;;;7.30;99.90;;;;;;4964252;28;20179;-72
2023/12/30 07:27:39;;;;;;;1.77;1.15;;;7.30;99.90;;;;;;4965388;28;20031;-72
2023/12/30 07:30:06;;;;;;;5.15;1.38;;;7.30;99.90;;;;;;4966935;28;20590;-72
2023/12/30 07:32:31;;;;;;;3.83;1.30;;;7.20;99.90;;;;;;4968636;28;20027;-71
2023/12/30 07:34:58;;;;;;;3.33;1.50;;;7.30;99.90;;;;;;4956279;28;20130;-71
2023/12/30 07:37:24;;;;;;;3.65;1.52;;;7.20;99.90;;;;;;4966803;28;20034;-70
2023/12/30 07:39:50;;;;;;;4.75;1.38;;;7.20;99.90;;;;;;4964906;28;20042;-72
2023/12/30 07:42:18;;;;;;;2.38;1.50;;;7.20;99.90;;;;;;4968854;28;20027;-73
2023/12/30 07:44:44;;;;;;;3.47;1.30;;;7.20;99.90;;;;;;4964299;28;20023;-74
2023/12/30 07:47:09;;;;;;;1.73;1.40;;;7.30;99.90;;;;;;4963517;28;20492;-72
2023/12/30 07:49:35;;;;;;;4.85;1.52;;;7.40;99.90;;;;;;4971206;28;20030;-72
2023/12/30 07:52:01;;;;;;;3.17;1.40;;;7.50;99.90;;;;;;4963534;28;20027;-70
2023/12/30 07:54:27;;;;;;;4.78;1.60;;;7.70;99.90;;;;;;4960143;28;20131;-69
2023/12/30 07:56:53;;;;;;;5.93;1.60;;;7.80;99.90;;;;;;4961965;28;20941;-69
2023/12/30 07:59:19;;;;;;;2.85;1.75;;;7.80;99.90;;;;;;4972049;28;20093;-68
2023/12/30 08:01:45;;;;;;;2.33;1.40;;;7.90;99.90;;;;;;4958431;28;20046;-69
2023/12/30 08:04:11;;;;;;;3.33;1.40;;;7.90;99.90;;;;;;4967416;28;20058;-69
2023/12/30 08:06:39;;;;;;;3.97;1.45;;;8.00;99.90;;;;;;4961683;28;20683;-71
2023/12/30 08:09:04;;;;;;;2.50;1.40;;;8.10;99.90;;;;;;4963954;28;20467;-70
2023/12/30 08:11:30;;;;;;;2.35;1.33;;;8.10;99.90;;;;;;4964599;28;20083;-69
2023/12/30 08:13:55;;;;;;;2.45;1.40;;;8.20;99.90;;;;;;4960854;28;20082;-69
2023/12/30 08:16:21;;;;;;;2.67;1.38;;;8.20;99.90;;;;;;4960260;28;20113;-70
2023/12/30 08:18:48;;;;;;;2.80;1.45;;;8.30;99.90;;;;;;4966206;28;20039;-70
2023/12/30 08:21:14;;;;;;;2.17;1.20;;;8.40;99.90;;;;;;4967404;28;20027;-70
2023/12/30 08:23:40;;;;;;;4.90;0.90;;;8.50;99.90;;;;;;4981568;28;20034;-70
2023/12/30 08:26:05;;;;;;;1.90;1.00;;;8.60;99.90;;;;;;4984719;28;20043;-70
2023/12/30 08:28:31;;;;;;;1.20;1.10;;;8.60;99.90;;;;;;4982208;28;20022;-70
2023/12/30 08:30:59;;;;;;;1.52;0.88;;;8.60;99.90;;;;;;4968499;28;20019;-70
2023/12/30 08:33:25;;;;;;;2.65;1.30;;;8.70;99.90;;;;;;4963731;28;20038;-69
2023/12/30 08:35:51;;;;;;;2.42;1.00;;;8.80;99.90;;;;;;4965586;28;20365;-71
2023/12/30 08:38:16;;;;;;;1.50;0.75;;;8.80;99.90;;;;;;4962899;28;20062;-71
2023/12/30 08:40:42;;;;;;;2.17;1.10;;;8.90;99.90;;;;;;4965031;28;20361;-71
2023/12/30 08:43:08;;;;;;;1.98;1.20;;;8.90;99.90;;;;;;4963135;28;20069;-72
2023/12/30 08:45:34;;;;;;;3.40;1.48;;;8.90;99.90;;;;;;4965377;28;20022;-72
2023/12/30 08:48:00;;;;;;;1.20;1.08;;;8.90;99.90;;;;;;4963213;28;20026;-73
2023/12/30 08:50:26;;;;;;;1.83;0.95;;;8.90;99.90;;;;;;4960079;28;20042;-73
2023/12/30 08:52:52;;;;;;;3.80;1.40;;;9.00;99.90;;;;;;4962785;28;20023;-71
2023/12/30 08:55:17;;;;;;;3.20;0.98;;;9.00;99.90;;;;;;4966129;28;20038;-70
2023/12/30 08:57:43;;;;;;;2.47;1.27;;;9.10;99.90;;;;;;4970225;28;20488;-73
2023/12/30 09:00:09;;;;;;;1.95;1.10;;;9.20;99.90;;;;;;4966361;28;20137;-71
2023/12/30 09:02:35;;;;;;;3.47;1.40;;;9.30;99.90;;;;;;4964764;28;20035;-69
2023/12/30 09:05:02;;;;;;;5.68;1.90;;;9.30;99.90;;;;;;4967435;28;20030;-70
2023/12/30 09:07:29;;;;;;;2.95;1.45;;;9.30;99.90;;;;;;4968138;28;20389;-69
2023/12/30 09:09:56;;;;;;;3.00;1.23;;;9.30;99.90;;;;;;4967142;28;20156;-73
2023/12/30 09:12:21;;;;;;;8.63;1.10;;;9.40;99.90;;;;;;4963985;28;20079;-72
2023/12/30 09:14:47;;;;;;;1.50;1.10;;;9.50;99.90;;;;;;4965036;28;20030;-71
2023/12/30 09:17:13;;;;;;;1.98;1.20;;;9.50;99.90;;;;;;4939056;28;20055;-71
2023/12/30 09:19:38;;;;;;;1.80;1.00;;;9.60;99.90;;;;;;4942220;29;20035;-71
2023/12/30 09:22:07;;;;;;;2.28;1.08;;;9.70;99.90;;;;;;4943973;29;20027;-72
2023/12/30 09:24:36;;;;;;;1.33;0.90;;;9.70;99.90;;;;;;4941341;29;20046;-72
2023/12/30 09:27:02;;;;;;;3.47;1.10;;;9.80;99.90;;;;;;4942757;29;20047;-74
2023/12/30 09:29:27;;;;;;;2.28;0.82;;;9.80;99.90;;;;;;4941741;29;20030;-75
2023/12/30 09:31:53;;;;;;;2.35;0.90;;;9.80;99.90;;;;;;4938492;29;20035;-74
2023/12/30 09:34:19;;;;;;;2.08;1.00;;;9.80;99.90;;;;;;4940096;29;20394;-72
2023/12/30 09:36:44;;;;;;;1.58;1.02;;;9.90;99.90;;;;;;4941002;29;20039;-74
2023/12/30 09:39:11;;;;;;;0.90;0.70;;;10.00;99.90;;;;;;4949449;28;20031;-75
2023/12/30 09:41:40;;;;;;;2.00;0.60;;;10.00;99.90;;;;;;4946210;28;20043;-70
2023/12/30 09:44:06;;;;;;;0.98;0.63;;;10.10;99.90;;;;;;4941400;29;20041;-75
2023/12/30 09:46:34;;;;;;;2.97;0.70;;;10.10;99.90;;;;;;4940156;29;20032;-74
2023/12/30 09:49:02;;;;;;;1.42;0.60;;;10.10;99.90;;;;;;4944566;29;20038;-74
2023/12/30 09:51:29;;;;;;;1.30;0.60;;;10.10;99.90;;;;;;4939807;29;20028;-72
2023/12/30 09:53:55;;;;;;;2.70;0.80;;;10.00;99.90;;;;;;4949607;29;20031;-74
2023/12/30 09:56:22;;;;;;;1.02;0.65;;;10.00;99.90;;;;;;4946257;28;20042;-71
2023/12/30 09:58:49;;;;;;;0.63;0.47;;;10.00;99.90;;;;;;4948061;29;20031;-69
2023/12/30 10:01:16;;;;;;;1.13;0.75;;;10.10;99.90;;;;;;4943744;29;20027;-69
2023/12/30 10:03:42;;;;;;;1.67;0.60;;;10.10;99.90;;;;;;4935576;29;20385;-70
2023/12/30 10:06:11;;;;;;;2.83;0.63;;;10.10;99.90;;;;;;4947331;29;20035;-70
2023/12/30 10:08:37;;;;;;;2.93;0.60;;;10.10;99.90;;;;;;4937155;29;20097;-70
2023/12/30 10:11:10;;;;;;;1.95;1.05;;;10.00;99.90;;;;;;4944631;29;20485;-70
2023/12/30 10:13:38;;;;;;;1.65;0.77;;;10.00;99.90;;;;;;4949194;29;20038;-72
2023/12/30 10:16:05;;;;;;;1.55;0.63;;;10.00;99.90;;;;;;4952175;28;20051;-72
2023/12/30 10:18:38;;;;;;;1.83;0.60;;;10.00;99.90;;;;;;4970431;28;20396;-71
2023/12/30 10:21:05;;;;;;;4.78;0.93;;;9.90;99.90;;;;;;4967734;28;20499;-70
2023/12/30 10:23:32;;;;;;;1.75;0.60;;;10.00;99.90;;;;;;4970702;28;20029;-70
2023/12/30 10:25:58;;;;;;;2.50;0.98;;;10.00;99.90;;;;;;4968090;28;20033;-72
2023/12/30 10:28:24;;;;;;;2.47;0.82;;;10.00;99.90;;;;;;4962562;28;20107;-71
2023/12/30 10:31:09;;;;;;;1.50;0.50;;;10.00;99.90;;;;;;4970162;28;20105;-71
2023/12/30 10:33:35;;;;;;;2.17;0.57;;;10.10;99.90;;;;;;4968803;28;20060;-70
2023/12/30 10:36:05;;;;;;;3.67;0.68;;;10.20;99.90;;;;;;4971626;28;20058;-70
2023/12/30 10:38:32;;;;;;;2.50;0.68;;;10.30;99.90;;;;;;4968898;28;20050;-70
2023/12/30 10:40:58;;;;;;;2.65;0.57;;;10.30;99.90;;;;;;4967952;28;20129;-70
2023/12/30 10:43:24;;;;;;;2.25;0.60;;;10.40;99.90;;;;;;4958323;28;20448;-71
2023/12/30 10:45:58;;;;;;;2.38;0.70;;;10.40;99.90;;;;;;4964176;28;20030;-71
2023/12/30 10:48:33;;;;;;;2.50;0.40;;;10.40;99.90;;;;;;4950449;29;20110;-71
2023/12/30 10:50:59;;;;;;;1.38;0.32;;;10.50;99.90;;;;;;4965297;28;20031;-71
2023/12/30 10:53:39;;;;;;;2.05;0.60;;;10.40;99.90;;;;;;4968055;28;20031;-71
2023/12/30 10:56:09;;;;;;;2.45;0.40;;;10.50;99.90;;;;;;4970256;28;20062;-70
2023/12/30 10:58:35;;;;;;;2.20;0.70;;;10.50;99.90;;;;;;4968565;28;20031;-71
2023/12/30 11:01:05;;;;;;;1.10;0.50;;;10.60;99.90;;;;;;4962778;28;20027;-71
2023/12/30 11:03:32;;;;;;;;;;;10.60;99.90;;;;;;4970740;28;20038;-71
2023/12/30 11:06:07;;;;;;;1.92;0.95;;;10.70;99.90;;;;;;4971438;28;19909;-70
2023/12/30 11:08:33;;;;;;;3.35;0.63;;;10.60;99.90;;;;;;4968139;28;20125;-70
2023/12/30 11:11:02;;;;;;;1.23;0.50;;;10.70;99.90;;;;;;4967093;28;20033;-70
2023/12/30 11:13:35;;;;;;;0.98;0.40;;;10.70;99.90;;;;;;4972255;28;20037;-70
2023/12/30 11:16:13;;;;;;;1.08;0.20;;;10.70;99.90;;;;;;4959937;28;20067;-70
2023/12/30 11:18:53;;;;;;;1.33;0.30;;;10.90;99.90;;;;;;4961086;28;20178;-71
2023/12/30 11:21:42;;;;;;;4.10;0.85;;;11.00;99.90;;;;;;4970597;28;20082;-70
2023/12/30 11:24:10;;;;;;;1.00;0.30;;;11.00;99.90;;;;;;4968679;28;20035;-70
2023/12/30 11:26:39;;;;;;;2.45;0.75;;;11.10;99.90;;;;;;4968981;28;20046;-70
2023/12/30 11:29:09;;;;;;;1.40;0.40;;;11.10;99.90;;;;;;4970467;28;20469;-70
2023/12/30 11:31:36;;;;;;;1.35;1.17;;;11.20;99.90;;;;;;4973380;28;20031;-70
2023/12/30 11:34:03;;;;;;;2.20;0.90;;;11.30;99.90;;;;;;4959401;28;20491;-70
2023/12/30 11:36:29;;;;;;;2.72;0.60;;;11.40;99.90;;;;;;4969178;28;20042;-70
2023/12/30 11:38:59;;;;;;;3.45;0.40;;;11.50;99.90;;;;;;4958755;28;20106;-70
2023/12/30 11:41:27;;;;;;;0.93;0.40;;;11.60;99.90;;;;;;4973774;28;20157;-70
2023/12/30 11:43:54;;;;;;;1.40;0.55;;;11.80;99.90;;;;;;4963416;28;20022;-71
2023/12/30 11:46:20;;;;;;;2.20;0.52;;;11.90;99.90;;;;;;4966067;28;20035;-70
2023/12/30 11:48:46;;;;;;;0.60;0.30;;;12.10;99.90;;;;;;4963300;28;20038;-71
2023/12/30 11:51:25;;;;;;;1.10;0.60;;;12.10;99.90;;;;;;4963729;28;20031;-70
2023/12/30 11:53:51;;;;;;;0.93;0.22;;;12.10;99.90;;;;;;4972224;28;20034;-70
2023/12/30 11:56:19;;;;;;;2.13;0.68;;;12.20;99.90;;;;;;4970277;28;20114;-70
2023/12/30 11:58:46;;;;;;;3.88;0.60;;;12.30;99.90;;;;;;4967818;28;20038;-70
2023/12/30 12:01:12;;;;;;;1.00;0.45;;;12.20;99.90;;;;;;4965482;28;20063;-70
2023/12/30 12:03:38;;;;;;;12.57;4.82;;;12.20;99.90;;;;;;4968174;28;20452;-71
2023/12/30 12:06:04;;;;;;;3.05;1.50;;;12.00;99.90;;;;;;4969891;28;20094;-71
2023/12/30 12:08:29;;;;;;;1.70;0.50;;;11.90;99.90;;;;;;4958341;28;20032;-72
2023/12/30 12:10:56;;;;;;;3.13;0.55;;;11.90;99.90;;;;;;4964523;28;20384;-73
2023/12/30 12:13:26;;;;;;;2.83;1.10;;;11.90;99.90;;;;;;4970772;28;20030;-72
2023/12/30 12:15:56;;;;;;;0.80;0.55;;;11.80;99.90;;;;;;4959755;28;20062;-72
2023/12/30 12:18:22;;;;;;;3.25;0.52;;;11.80;99.90;;;;;;4968505;28;20118;-71
2023/12/30 12:20:49;;;;;;;0.88;0.30;;;11.70;99.90;;;;;;4967395;28;20031;-72
2023/12/30 12:23:18;;;;;;;1.90;0.43;;;11.70;99.90;;;;;;4973381;28;20042;-72
2023/12/30 12:25:44;;;;;;;0.95;0.47;;;11.70;99.90;;;;;;4970847;28;20058;-72
2023/12/30 12:28:14;;;;;;;2.10;0.50;;;11.70;99.90;;;;;;4961606;28;20519;-71
2023/12/30 12:30:40;;;;;;;5.03;0.98;;;11.80;99.90;;;;;;4971492;28;20448;-71
2023/12/30 12:33:08;;;;;;;5.13;1.52;;;12.00;99.90;;;;;;4961639;28;20111;-72
2023/12/30 12:35:34;;;;;;;1.55;0.57;;;12.10;99.90;;;;;;4965187;28;20030;-73
2023/12/30 12:38:00;;;;;;;1.85;0.22;;;12.20;99.90;;;;;;4971072;28;20038;-72
2023/12/30 12:40:26;;;;;;;2.13;0.40;;;12.20;99.90;;;;;;4967827;28;20030;-70
2023/12/30 12:42:52;;;;;;;0.55;0.40;;;12.30;99.90;;;;;;4957537;28;20464;-69
2023/12/30 12:45:18;;;;;;;1.65;0.57;;;12.30;99.90;;;;;;4967342;28;20030;-70
2023/12/30 12:47:44;;;;;;;1.17;0.45;;;12.30;99.90;;;;;;4962944;28;20061;-69
2023/12/30 12:50:10;;;;;;;1.17;0.47;;;12.30;99.90;;;;;;4958110;28;20109;-71
2023/12/30 12:52:36;;;;;;;1.23;0.50;;;12.20;99.90;;;;;;4966435;28;20099;-70